Time;durP1;ratioP1;P1;durP2;ratioP2;P2;SDS_P1;SDS_P2;PMS_P1;PMS_P2;Temp;Humidity;BMP_temperature;BMP_pressure;BME280_temperature;BME280_humidity;BME280_pressure;Samples;Min_cycle;Max_cycle;Signal;HPM_P1;HPM_P2
2021/08/21 00:00:08;;;;;;;9.68;6.07;;;;;;;;;;143745;628;46010;-54
2021/08/21 00:02:36;;;;;;;9.82;5.95;;;;;;;;;;143747;613;45021;-54
2021/08/21 00:05:05;;;;;;;7.75;5.70;;;;;;;;;;143743;690;46022;-53
2021/08/21 00:07:32;;;;;;;9.73;6.37;;;;;;;;;;143741;592;46020;-54
2021/08/21 00:10:05;;;;;;;7.57;5.87;;;;;;;;;;143745;564;46010;-54
2021/08/21 00:12:32;;;;;;;9.52;6.10;;;;;;;;;;143747;569;45020;-54
2021/08/21 00:14:59;;;;;;;8.15;6.50;;;;;;;;;;143745;573;46022;-54
2021/08/21 00:17:27;;;;;;;8.05;6.05;;;;;;;;;;143741;627;46021;-54
2021/08/21 00:19:54;;;;;;;10.23;7.12;;;;;;;;;;143744;642;46010;-55
2021/08/21 00:22:21;;;;;;;9.55;5.85;;;;;;;;;;143747;601;45020;-54
2021/08/21 00:24:48;;;;;;;9.73;6.22;;;;;;;;;;143743;606;47020;-54
2021/08/21 00:27:15;;;;;;;9.68;6.60;;;;;;;;;;143740;585;46020;-54
2021/08/21 00:29:42;;;;;;;7.72;6.30;;;;;;;;;;143743;689;46010;-54
2021/08/21 00:32:09;;;;;;;7.32;6.07;;;;;;;;;;143745;601;45021;-54
2021/08/21 00:34:36;;;;;;;10.10;6.07;;;;;;;;;;143744;617;46020;-53
2021/08/21 00:37:03;;;;;;;9.40;6.90;;;;;;;;;;143735;620;47010;-54
2021/08/21 00:39:30;;;;;;;11.48;6.50;;;;;;;;;;143744;593;46010;-54
2021/08/21 00:41:58;;;;;;;8.82;6.68;;;;;;;;;;143746;596;45020;-54
2021/08/21 00:44:25;;;;;;;9.07;6.53;;;;;;;;;;143746;611;46020;-54
2021/08/21 00:47:16;;;;;;;8.88;6.40;;;;;;;;;;143741;579;46021;-54
2021/08/21 00:49:46;;;;;;;9.05;6.85;;;;;;;;;;143743;565;46010;-54
2021/08/21 00:52:16;;;;;;;9.85;5.90;;;;;;;;;;143746;628;46020;-54
2021/08/21 00:54:43;;;;;;;14.15;6.78;;;;;;;;;;143744;564;46023;-54
2021/08/21 00:57:13;;;;;;;10.73;6.43;;;;;;;;;;143741;598;46020;-54
2021/08/21 00:59:41;;;;;;;9.00;6.85;;;;;;;;;;143744;571;46010;-54
2021/08/21 01:02:10;;;;;;;10.05;6.97;;;;;;;;;;143748;605;46021;-54
2021/08/21 01:04:39;;;;;;;11.02;6.90;;;;;;;;;;143743;588;46020;-55
2021/08/21 01:07:11;;;;;;;7.90;6.47;;;;;;;;;;143741;563;46020;-54
2021/08/21 01:09:39;;;;;;;10.13;6.82;;;;;;;;;;143745;571;46010;-54
2021/08/21 01:12:13;;;;;;;12.10;6.18;;;;;;;;;;143747;585;46020;-54
2021/08/21 01:14:41;;;;;;;10.60;5.90;;;;;;;;;;143743;596;46022;-54
2021/08/21 01:17:08;;;;;;;9.80;6.57;;;;;;;;;;143741;570;46020;-54
2021/08/21 01:19:38;;;;;;;14.57;8.38;;;;;;;;;;143743;598;46010;-54
2021/08/21 01:22:10;;;;;;;8.55;6.40;;;;;;;;;;143753;582;45023;-53
2021/08/21 01:24:38;;;;;;;10.63;6.32;;;;;;;;;;143743;611;46021;-54
2021/08/21 01:27:05;;;;;;;7.70;5.68;;;;;;;;;;143743;572;46022;-54
2021/08/21 01:29:32;;;;;;;9.50;6.50;;;;;;;;;;143743;616;46010;-54
2021/08/21 01:31:59;;;;;;;7.85;6.12;;;;;;;;;;143747;583;45023;-54
2021/08/21 01:34:26;;;;;;;9.40;6.25;;;;;;;;;;143744;576;47018;-54
2021/08/21 01:36:53;;;;;;;11.43;6.82;;;;;;;;;;143742;595;46022;-54
2021/08/21 01:39:21;;;;;;;11.35;6.22;;;;;;;;;;143743;573;46010;-54
2021/08/21 01:41:47;;;;;;;8.93;6.55;;;;;;;;;;143746;592;46022;-54
2021/08/21 01:44:16;;;;;;;10.80;6.68;;;;;;;;;;143744;578;46020;-54
2021/08/21 01:46:47;;;;;;;9.77;6.62;;;;;;;;;;143742;583;46023;-54
2021/08/21 01:49:18;;;;;;;8.07;6.40;;;;;;;;;;143745;604;46010;-54
2021/08/21 01:51:49;;;;;;;10.63;6.93;;;;;;;;;;143747;577;46022;-54
2021/08/21 01:54:25;;;;;;;11.93;7.00;;;;;;;;;;143744;569;46019;-54
2021/08/21 01:57:00;;;;;;;12.77;7.68;;;;;;;;;;143743;618;46022;-54
2021/08/21 01:59:38;;;;;;;8.73;6.07;;;;;;;;;;143744;622;46010;-54
2021/08/21 02:02:07;;;;;;;8.43;6.57;;;;;;;;;;143745;565;46023;-54
2021/08/21 02:04:35;;;;;;;9.85;6.03;;;;;;;;;;143743;621;47018;-54
2021/08/21 02:07:02;;;;;;;6.45;5.50;;;;;;;;;;143741;753;46022;-54
2021/08/21 02:09:28;;;;;;;10.02;6.18;;;;;;;;;;143745;579;46010;-54
2021/08/21 02:11:57;;;;;;;7.72;5.45;;;;;;;;;;143746;564;45022;-54
2021/08/21 02:14:25;;;;;;;8.65;5.70;;;;;;;;;;143745;605;46019;-54
2021/08/21 02:16:55;;;;;;;9.10;5.93;;;;;;;;;;143741;576;46023;-54
2021/08/21 02:19:23;;;;;;;9.07;6.10;;;;;;;;;;143743;570;46010;-55
2021/08/21 02:21:51;;;;;;;7.93;5.93;;;;;;;;;;143748;578;45023;-54
2021/08/21 02:24:24;;;;;;;9.52;5.97;;;;;;;;;;143744;624;46036;-54
2021/08/21 02:26:52;;;;;;;9.43;6.53;;;;;;;;;;143743;581;46022;-54
2021/08/21 02:29:20;;;;;;;9.45;6.03;;;;;;;;;;143745;605;46011;-54
2021/08/21 02:31:47;;;;;;;9.80;6.47;;;;;;;;;;143747;583;46023;-54
2021/08/21 02:34:14;;;;;;;9.02;6.80;;;;;;;;;;143744;580;46020;-54
2021/08/21 02:36:42;;;;;;;10.52;6.45;;;;;;;;;;143741;571;46022;-54
2021/08/21 02:39:10;;;;;;;9.13;6.15;;;;;;;;;;143742;586;46010;-54
2021/08/21 02:41:37;;;;;;;9.15;6.25;;;;;;;;;;143743;630;46022;-54
2021/08/21 02:44:04;;;;;;;10.00;6.40;;;;;;;;;;143744;573;46020;-54
2021/08/21 02:46:32;;;;;;;9.10;6.47;;;;;;;;;;143743;608;46022;-54
2021/08/21 02:48:59;;;;;;;11.38;6.68;;;;;;;;;;143743;606;46010;-54
2021/08/21 02:51:26;;;;;;;10.95;6.68;;;;;;;;;;143744;585;46022;-54
2021/08/21 02:53:54;;;;;;;8.10;5.70;;;;;;;;;;143744;577;46021;-54
2021/08/21 02:56:20;;;;;;;8.02;5.85;;;;;;;;;;143742;593;46022;-54
2021/08/21 02:58:47;;;;;;;7.82;5.70;;;;;;;;;;143742;625;46013;-54
2021/08/21 03:01:14;;;;;;;12.57;6.25;;;;;;;;;;143747;571;46023;-54
2021/08/21 03:03:41;;;;;;;7.40;5.70;;;;;;;;;;143745;593;46018;-54
2021/08/21 03:06:09;;;;;;;9.25;6.40;;;;;;;;;;143736;574;46022;-54
2021/08/21 03:08:36;;;;;;;9.75;6.47;;;;;;;;;;143742;622;46010;-54
2021/08/21 03:11:03;;;;;;;7.68;5.78;;;;;;;;;;143741;573;47012;-54
2021/08/21 03:13:30;;;;;;;9.07;6.00;;;;;;;;;;143742;572;46020;-55
2021/08/21 03:15:57;;;;;;;14.48;7.57;;;;;;;;;;143740;578;46023;-54
2021/08/21 03:18:24;;;;;;;16.60;8.13;;;;;;;;;;143740;613;46010;-54
2021/08/21 03:20:51;;;;;;;10.20;7.03;;;;;;;;;;143745;586;45022;-54
2021/08/21 03:23:18;;;;;;;12.32;7.30;;;;;;;;;;143742;629;46021;-54
2021/08/21 03:25:45;;;;;;;18.05;7.90;;;;;;;;;;143739;575;46022;-54
2021/08/21 03:28:12;;;;;;;19.98;8.45;;;;;;;;;;143741;587;46010;-54
2021/08/21 03:30:39;;;;;;;11.70;7.45;;;;;;;;;;143744;570;45023;-54
2021/08/21 03:33:10;;;;;;;12.90;7.55;;;;;;;;;;143742;569;46018;-54
2021/08/21 03:35:37;;;;;;;11.98;7.75;;;;;;;;;;143739;587;46022;-54
2021/08/21 03:38:04;;;;;;;12.77;7.00;;;;;;;;;;143742;592;46010;-54
2021/08/21 03:40:31;;;;;;;11.52;7.28;;;;;;;;;;143744;613;46022;-54
2021/08/21 03:42:58;;;;;;;8.93;6.10;;;;;;;;;;143741;568;46020;-54
2021/08/21 03:45:25;;;;;;;9.00;6.22;;;;;;;;;;143740;613;46023;-54
2021/08/21 03:47:52;;;;;;;12.30;7.28;;;;;;;;;;143741;581;46010;-54
2021/08/21 03:50:19;;;;;;;17.52;7.15;;;;;;;;;;143744;564;45022;-54
2021/08/21 03:52:46;;;;;;;15.98;8.10;;;;;;;;;;143740;607;46020;-54
2021/08/21 03:55:14;;;;;;;11.43;6.82;;;;;;;;;;143738;606;46022;-54
2021/08/21 03:57:42;;;;;;;15.75;6.78;;;;;;;;;;143743;636;46018;-53
2021/08/21 04:00:10;;;;;;;12.60;7.25;;;;;;;;;;143746;577;45023;-54
2021/08/21 04:02:37;;;;;;;14.75;7.40;;;;;;;;;;143740;697;46020;-54
2021/08/21 04:05:04;;;;;;;13.52;7.20;;;;;;;;;;143742;609;46022;-54
2021/08/21 04:07:31;;;;;;;10.48;7.00;;;;;;;;;;143741;626;46010;-54
2021/08/21 04:09:58;;;;;;;13.27;7.37;;;;;;;;;;143743;585;45022;-54
2021/08/21 04:12:25;;;;;;;13.43;7.18;;;;;;;;;;143740;615;46020;-53
2021/08/21 04:14:52;;;;;;;11.90;6.75;;;;;;;;;;143740;577;46023;-54
2021/08/21 04:17:19;;;;;;;18.52;7.65;;;;;;;;;;143741;588;46010;-53
2021/08/21 04:19:46;;;;;;;10.70;6.45;;;;;;;;;;143743;571;45022;-53
2021/08/21 04:22:13;;;;;;;14.73;7.12;;;;;;;;;;143741;580;46020;-54
2021/08/21 04:24:40;;;;;;;11.73;7.07;;;;;;;;;;143738;584;46022;-53
2021/08/21 04:27:08;;;;;;;12.85;7.60;;;;;;;;;;143742;585;46010;-53
2021/08/21 04:29:35;;;;;;;12.48;6.78;;;;;;;;;;143745;604;46023;-53
2021/08/21 04:32:02;;;;;;;14.25;8.02;;;;;;;;;;143741;589;46018;-53
2021/08/21 04:34:34;;;;;;;11.30;7.03;;;;;;;;;;143739;581;46022;-53
2021/08/21 04:37:04;;;;;;;12.48;7.22;;;;;;;;;;143740;589;46011;-53
2021/08/21 04:39:31;;;;;;;13.90;7.80;;;;;;;;;;143745;578;46023;-53
2021/08/21 04:41:58;;;;;;;15.25;7.40;;;;;;;;;;143739;575;47010;-54
2021/08/21 04:44:26;;;;;;;13.95;7.22;;;;;;;;;;143739;566;46023;-53
2021/08/21 04:46:53;;;;;;;14.55;7.25;;;;;;;;;;143741;608;46010;-54
2021/08/21 04:49:20;;;;;;;12.95;6.85;;;;;;;;;;143743;569;46022;-53
2021/08/21 04:51:47;;;;;;;14.40;7.28;;;;;;;;;;143740;591;46020;-53
2021/08/21 04:54:14;;;;;;;14.25;7.22;;;;;;;;;;143738;589;46023;-53
2021/08/21 04:56:41;;;;;;;18.92;7.43;;;;;;;;;;143742;591;45913;-53
2021/08/21 04:59:08;;;;;;;12.37;7.62;;;;;;;;;;143741;588;47009;-54
2021/08/21 05:01:35;;;;;;;17.10;7.25;;;;;;;;;;143741;634;46021;-53
2021/08/21 05:04:02;;;;;;;13.88;6.90;;;;;;;;;;143739;587;46022;-53
2021/08/21 05:06:29;;;;;;;15.05;6.43;;;;;;;;;;143742;598;46011;-53
2021/08/21 05:08:56;;;;;;;11.95;6.97;;;;;;;;;;143746;622;46023;-53
2021/08/21 05:11:23;;;;;;;10.88;6.35;;;;;;;;;;143742;574;46020;-53
2021/08/21 05:13:50;;;;;;;9.38;6.50;;;;;;;;;;143739;617;46023;-53
2021/08/21 05:16:18;;;;;;;11.50;6.80;;;;;;;;;;143740;581;46010;-53
2021/08/21 05:18:51;;;;;;;11.10;6.57;;;;;;;;;;143746;598;46022;-53
2021/08/21 05:21:27;;;;;;;11.25;7.90;;;;;;;;;;143741;596;46020;-53
2021/08/21 05:23:55;;;;;;;14.43;7.25;;;;;;;;;;143740;578;46022;-53
2021/08/21 05:26:22;;;;;;;14.82;7.97;;;;;;;;;;143742;569;46010;-53
2021/08/21 05:28:50;;;;;;;14.93;7.68;;;;;;;;;;143745;585;46022;-53
2021/08/21 05:31:17;;;;;;;11.57;6.12;;;;;;;;;;143742;659;46021;-53
2021/08/21 05:33:44;;;;;;;12.15;7.12;;;;;;;;;;143741;572;46022;-53
2021/08/21 05:36:11;;;;;;;8.95;6.47;;;;;;;;;;143738;595;46018;-53
2021/08/21 05:38:38;;;;;;;10.95;7.15;;;;;;;;;;143744;608;45023;-53
2021/08/21 05:41:05;;;;;;;12.23;7.22;;;;;;;;;;143743;592;46018;-53
2021/08/21 05:43:32;;;;;;;9.60;6.57;;;;;;;;;;143739;566;46051;-53
2021/08/21 05:45:59;;;;;;;14.75;7.00;;;;;;;;;;143743;572;46010;-53
2021/08/21 05:48:26;;;;;;;8.40;6.28;;;;;;;;;;143745;588;45022;-53
2021/08/21 05:50:53;;;;;;;8.48;5.70;;;;;;;;;;143742;565;46019;-53
2021/08/21 05:53:20;;;;;;;15.18;6.12;;;;;;;;;;143738;616;46023;-53
2021/08/21 05:55:47;;;;;;;11.35;7.72;;;;;;;;;;143741;600;46010;-53
2021/08/21 05:58:14;;;;;;;16.83;11.27;;;;;;;;;;143745;612;45035;-53
2021/08/21 06:00:41;;;;;;;10.80;8.63;;;;;;;;;;143742;589;46021;-53
2021/08/21 06:03:08;;;;;;;11.15;7.28;;;;;;;;;;143741;578;46920;-54
2021/08/21 06:05:35;;;;;;;12.63;6.40;;;;;;;;;;143743;573;46010;-53
2021/08/21 06:08:02;;;;;;;11.95;6.40;;;;;;;;;;143744;564;46023;-53
2021/08/21 06:10:29;;;;;;;9.93;6.12;;;;;;;;;;143742;655;46018;-53
2021/08/21 06:12:56;;;;;;;18.85;12.50;;;;;;;;;;143738;593;46031;-53
2021/08/21 06:15:23;;;;;;;14.80;9.50;;;;;;;;;;143738;591;46019;-53
2021/08/21 06:17:50;;;;;;;11.43;6.82;;;;;;;;;;143744;565;45022;-53
2021/08/21 06:20:17;;;;;;;12.40;5.75;;;;;;;;;;143741;588;46020;-53
2021/08/21 06:22:44;;;;;;;9.88;5.55;;;;;;;;;;143740;572;46023;-53
2021/08/21 06:25:12;;;;;;;8.82;5.78;;;;;;;;;;143741;669;46010;-53
2021/08/21 06:27:39;;;;;;;10.20;5.70;;;;;;;;;;143745;590;46022;-53
2021/08/21 06:30:08;;;;;;;9.95;5.28;;;;;;;;;;143742;590;46021;-53
2021/08/21 06:32:34;;;;;;;9.00;5.45;;;;;;;;;;143739;638;46022;-53
2021/08/21 06:35:01;;;;;;;6.78;5.30;;;;;;;;;;143741;623;46010;-53
2021/08/21 06:37:29;;;;;;;11.85;5.35;;;;;;;;;;143744;702;46023;-52
2021/08/21 06:39:56;;;;;;;8.20;6.00;;;;;;;;;;143740;627;46020;-53
2021/08/21 06:42:23;;;;;;;6.85;5.00;;;;;;;;;;143740;684;46022;-53
2021/08/21 06:44:50;;;;;;;6.22;4.72;;;;;;;;;;143741;588;46016;-53
2021/08/21 06:47:17;;;;;;;8.75;5.28;;;;;;;;;;143745;610;46022;-53
2021/08/21 06:49:44;;;;;;;8.88;5.53;;;;;;;;;;143741;696;46025;-53
2021/08/21 06:52:11;;;;;;;8.65;5.47;;;;;;;;;;143741;564;46921;-54
2021/08/21 06:54:38;;;;;;;10.82;5.15;;;;;;;;;;143741;603;46010;-53
2021/08/21 06:57:05;;;;;;;11.80;5.87;;;;;;;;;;143744;575;45022;-53
2021/08/21 06:59:33;;;;;;;11.93;5.55;;;;;;;;;;143742;572;46019;-54
2021/08/21 07:02:03;;;;;;;8.77;5.62;;;;;;;;;;143740;593;46022;-53
2021/08/21 07:04:30;;;;;;;10.40;5.20;;;;;;;;;;143741;595;46010;-54
2021/08/21 07:06:57;;;;;;;14.02;7.25;;;;;;;;;;143746;570;45023;-53
2021/08/21 07:09:24;;;;;;;9.57;7.43;;;;;;;;;;143741;697;46032;-53
2021/08/21 07:11:51;;;;;;;13.35;9.02;;;;;;;;;;143739;569;46022;-53
2021/08/21 07:14:18;;;;;;;12.75;8.93;;;;;;;;;;143741;599;46011;-53
2021/08/21 07:16:45;;;;;;;15.10;5.80;;;;;;;;;;143745;572;46022;-53
2021/08/21 07:19:12;;;;;;;8.75;5.15;;;;;;;;;;143741;660;46020;-53
2021/08/21 07:21:39;;;;;;;8.77;5.70;;;;;;;;;;143741;592;46023;-53
2021/08/21 07:24:07;;;;;;;12.60;5.37;;;;;;;;;;143740;570;46010;-53
2021/08/21 07:26:34;;;;;;;8.30;4.93;;;;;;;;;;143744;606;45022;-53
2021/08/21 07:29:01;;;;;;;8.57;5.70;;;;;;;;;;143741;590;46020;-54
2021/08/21 07:31:28;;;;;;;16.05;5.30;;;;;;;;;;143740;575;46022;-55
2021/08/21 07:33:56;;;;;;;10.82;5.35;;;;;;;;;;143743;611;46010;-54
2021/08/21 07:36:23;;;;;;;11.43;5.30;;;;;;;;;;143745;616;46022;-54
2021/08/21 07:38:52;;;;;;;12.98;5.30;;;;;;;;;;143744;591;46018;-54
2021/08/21 07:41:20;;;;;;;9.52;5.12;;;;;;;;;;143740;580;46022;-54
2021/08/21 07:43:47;;;;;;;7.70;4.87;;;;;;;;;;143742;579;46010;-53
2021/08/21 07:46:14;;;;;;;9.65;5.07;;;;;;;;;;143747;661;45022;-53
2021/08/21 07:48:41;;;;;;;7.35;5.15;;;;;;;;;;143742;605;46018;-52
2021/08/21 07:51:08;;;;;;;6.87;4.68;;;;;;;;;;143738;565;46023;-52
2021/08/21 07:53:35;;;;;;;7.68;4.97;;;;;;;;;;143742;613;46010;-52
2021/08/21 07:56:06;;;;;;;7.07;4.90;;;;;;;;;;143744;651;46022;-53
2021/08/21 07:58:36;;;;;;;8.52;4.90;;;;;;;;;;143743;638;46020;-52
2021/08/21 08:01:03;;;;;;;7.47;4.90;;;;;;;;;;143738;648;46022;-53
2021/08/21 08:03:30;;;;;;;7.07;4.87;;;;;;;;;;143741;599;46010;-52
2021/08/21 08:05:57;;;;;;;10.93;4.65;;;;;;;;;;143744;636;45021;-53
2021/08/21 08:08:24;;;;;;;6.72;4.95;;;;;;;;;;143742;727;46020;-53
2021/08/21 08:10:52;;;;;;;8.30;5.45;;;;;;;;;;143741;564;46022;-52
2021/08/21 08:13:20;;;;;;;13.98;5.80;;;;;;;;;;143742;564;46010;-53
2021/08/21 08:15:47;;;;;;;10.88;5.07;;;;;;;;;;143744;566;47035;-53
2021/08/21 08:18:14;;;;;;;12.93;5.32;;;;;;;;;;143741;563;46020;-53
2021/08/21 08:20:41;;;;;;;6.87;5.07;;;;;;;;;;143739;600;46023;-53
2021/08/21 08:23:08;;;;;;;7.57;5.12;;;;;;;;;;143743;586;46010;-52
2021/08/21 08:25:35;;;;;;;8.65;5.30;;;;;;;;;;143745;622;46022;-53
2021/08/21 08:28:02;;;;;;;6.40;4.97;;;;;;;;;;143741;631;47019;-53
2021/08/21 08:30:29;;;;;;;9.63;5.28;;;;;;;;;;143739;603;46022;-53
2021/08/21 08:32:56;;;;;;;7.97;4.30;;;;;;;;;;143743;627;46010;-53
2021/08/21 08:35:23;;;;;;;7.43;4.75;;;;;;;;;;143742;573;46022;-53
2021/08/21 08:37:50;;;;;;;6.87;4.87;;;;;;;;;;143742;564;46021;-52
2021/08/21 08:40:17;;;;;;;11.27;5.12;;;;;;;;;;143739;580;46022;-52
2021/08/21 08:42:45;;;;;;;6.65;5.03;;;;;;;;;;143743;637;46010;-52
2021/08/21 08:45:13;;;;;;;7.00;5.00;;;;;;;;;;143745;576;46023;-53
2021/08/21 08:47:41;;;;;;;9.13;5.32;;;;;;;;;;143742;589;47018;-52
2021/08/21 08:50:11;;;;;;;8.60;4.35;;;;;;;;;;143741;567;46023;-53
2021/08/21 08:52:39;;;;;;;8.80;4.20;;;;;;;;;;143741;564;46010;-52
2021/08/21 08:55:08;;;;;;;9.07;4.97;;;;;;;;;;143745;587;46022;-53
2021/08/21 08:57:43;;;;;;;11.70;4.97;;;;;;;;;;143743;567;46019;-52
2021/08/21 09:00:21;;;;;;;10.80;5.00;;;;;;;;;;143738;569;46023;-52
2021/08/21 09:02:51;;;;;;;7.50;4.60;;;;;;;;;;143742;593;46010;-53
2021/08/21 09:05:20;;;;;;;6.10;4.40;;;;;;;;;;143744;612;46022;-52
2021/08/21 09:07:55;;;;;;;9.13;5.28;;;;;;;;;;143742;579;46018;-54
2021/08/21 09:10:30;;;;;;;6.78;4.68;;;;;;;;;;143740;569;46022;-53
2021/08/21 09:13:13;;;;;;;6.30;4.57;;;;;;;;;;143740;583;46018;-52
2021/08/21 09:15:41;;;;;;;6.80;4.40;;;;;;;;;;143745;566;46022;-53
2021/08/21 09:18:22;;;;;;;8.30;4.70;;;;;;;;;;143744;632;46020;-52
2021/08/21 09:20:58;;;;;;;7.68;4.40;;;;;;;;;;143739;647;46023;-53
2021/08/21 09:23:46;;;;;;;8.85;4.47;;;;;;;;;;143742;596;46010;-53
2021/08/21 09:26:20;;;;;;;7.00;4.20;;;;;;;;;;143745;615;45023;-53
2021/08/21 09:28:51;;;;;;;9.90;4.30;;;;;;;;;;143742;589;46021;-53
2021/08/21 09:31:19;;;;;;;8.10;4.40;;;;;;;;;;143739;592;46022;-53
2021/08/21 09:34:04;;;;;;;8.95;4.80;;;;;;;;;;143741;573;46011;-53
2021/08/21 09:36:41;;;;;;;9.15;4.70;;;;;;;;;;143747;569;45023;-53
2021/08/21 09:39:15;;;;;;;8.80;4.78;;;;;;;;;;143743;573;46018;-54
2021/08/21 09:42:01;;;;;;;5.53;4.20;;;;;;;;;;143737;612;46023;-54
2021/08/21 09:44:30;;;;;;;7.43;4.65;;;;;;;;;;143741;564;46010;-54
2021/08/21 09:47:29;;;;;;;7.65;4.40;;;;;;;;;;143746;590;45022;-55
2021/08/21 09:50:18;;;;;;;8.48;4.37;;;;;;;;;;143743;576;46022;-55
2021/08/21 09:52:47;;;;;;;7.75;4.40;;;;;;;;;;143740;569;46022;-54
2021/08/21 09:55:19;;;;;;;6.95;4.28;;;;;;;;;;143740;597;46010;-54
2021/08/21 09:58:00;;;;;;;7.18;4.37;;;;;;;;;;143744;591;46023;-54
2021/08/21 10:00:31;;;;;;;6.32;4.25;;;;;;;;;;143741;617;46020;-54
2021/08/21 10:02:58;;;;;;;5.97;4.10;;;;;;;;;;143738;574;46022;-54
2021/08/21 10:05:27;;;;;;;6.43;4.28;;;;;;;;;;143742;583;46010;-53
2021/08/21 10:08:14;;;;;;;7.18;4.30;;;;;;;;;;143747;616;45022;-53
2021/08/21 10:10:50;;;;;;;6.87;4.10;;;;;;;;;;143744;578;46020;-53
2021/08/21 10:13:24;;;;;;;13.32;5.00;;;;;;;;;;143741;638;46022;-53
2021/08/21 10:15:52;;;;;;;9.57;4.25;;;;;;;;;;143742;659;46010;-52
2021/08/21 10:18:22;;;;;;;8.07;5.05;;;;;;;;;;143746;581;45023;-52
2021/08/21 10:20:49;;;;;;;7.10;4.75;;;;;;;;;;143742;589;46021;-52
2021/08/21 10:23:19;;;;;;;8.93;4.37;;;;;;;;;;143739;624;46022;-53
2021/08/21 10:26:02;;;;;;;9.40;5.25;;;;;;;;;;143743;572;46011;-52
2021/08/21 10:28:36;;;;;;;8.18;4.93;;;;;;;;;;143745;590;45023;-53
2021/08/21 10:31:03;;;;;;;7.68;4.55;;;;;;;;;;143741;563;46020;-52
2021/08/21 10:33:50;;;;;;;7.85;4.62;;;;;;;;;;143741;564;46023;-53
2021/08/21 10:36:55;;;;;;;12.55;5.05;;;;;;;;;;143743;583;46010;-53
2021/08/21 10:39:37;;;;;;;8.25;4.95;;;;;;;;;;143745;569;45022;-54
2021/08/21 10:42:30;;;;;;;9.50;4.70;;;;;;;;;;143743;584;46019;-53
2021/08/21 10:44:59;;;;;;;6.55;4.72;;;;;;;;;;143740;644;46022;-53
2021/08/21 10:47:36;;;;;;;7.25;4.60;;;;;;;;;;143740;565;46010;-53
2021/08/21 10:50:35;;;;;;;6.55;4.75;;;;;;;;;;143748;565;45023;-53
2021/08/21 10:53:06;;;;;;;7.75;4.80;;;;;;;;;;143741;602;47018;-54
2021/08/21 10:55:45;;;;;;;10.38;4.70;;;;;;;;;;143741;708;46022;-53
2021/08/21 10:58:22;;;;;;;7.03;4.82;;;;;;;;;;143743;610;46010;-54
2021/08/21 11:00:52;;;;;;;7.72;4.70;;;;;;;;;;143745;613;45022;-53
2021/08/21 11:03:41;;;;;;;9.80;4.78;;;;;;;;;;143742;580;46020;-53
2021/08/21 11:06:11;;;;;;;7.22;5.25;;;;;;;;;;143739;652;46022;-53
2021/08/21 11:09:04;;;;;;;6.18;4.37;;;;;;;;;;143743;591;46010;-54
2021/08/21 11:11:44;;;;;;;10.05;4.22;;;;;;;;;;143746;601;45023;-53
2021/08/21 11:14:30;;;;;;;7.43;4.55;;;;;;;;;;143743;594;46021;-53
2021/08/21 11:17:00;;;;;;;9.23;4.72;;;;;;;;;;143740;582;46022;-53
2021/08/21 11:19:47;;;;;;;8.82;4.70;;;;;;;;;;143744;566;46010;-53
2021/08/21 11:22:17;;;;;;;8.55;4.90;;;;;;;;;;143745;696;45022;-53
2021/08/21 11:25:00;;;;;;;8.27;4.60;;;;;;;;;;143744;612;46020;-53
2021/08/21 11:27:35;;;;;;;9.30;4.57;;;;;;;;;;143740;591;46023;-53
2021/08/21 11:30:15;;;;;;;6.62;4.72;;;;;;;;;;143744;605;46010;-53
2021/08/21 11:33:13;;;;;;;9.68;4.55;;;;;;;;;;143748;566;46022;-53
2021/08/21 11:35:53;;;;;;;8.43;4.93;;;;;;;;;;143744;611;46023;-53
2021/08/21 11:38:35;;;;;;;6.57;4.60;;;;;;;;;;143741;719;46022;-53
2021/08/21 11:41:07;;;;;;;11.02;5.20;;;;;;;;;;143742;586;46011;-53
2021/08/21 11:43:36;;;;;;;6.12;4.40;;;;;;;;;;143747;703;45022;-53
2021/08/21 11:46:04;;;;;;;7.00;4.55;;;;;;;;;;143743;578;46020;-53
2021/08/21 11:48:33;;;;;;;10.32;4.57;;;;;;;;;;143741;581;46023;-53
2021/08/21 11:51:02;;;;;;;9.05;4.62;;;;;;;;;;143742;565;46933;-53
2021/08/21 11:53:31;;;;;;;6.80;4.68;;;;;;;;;;143746;656;45022;-53
2021/08/21 11:56:00;;;;;;;7.30;4.47;;;;;;;;;;143742;606;46020;-53
2021/08/21 11:58:35;;;;;;;9.27;4.90;;;;;;;;;;143741;570;46022;-53
2021/08/21 12:01:14;;;;;;;9.38;4.70;;;;;;;;;;143741;585;46010;-53
2021/08/21 12:06:36;;;;;;;9.80;4.97;;;;;;;;;;143745;566;46010;-53
2021/08/21 12:09:16;;;;;;;6.47;4.82;;;;;;;;;;143741;579;46022;-52
2021/08/21 12:11:45;;;;;;;7.87;4.65;;;;;;;;;;143742;573;46010;-53
2021/08/21 12:14:15;;;;;;;9.30;5.00;;;;;;;;;;143747;620;45031;-53
2021/08/21 12:16:42;;;;;;;8.32;4.60;;;;;;;;;;143745;686;46020;-53
2021/08/21 12:19:10;;;;;;;11.57;5.03;;;;;;;;;;143742;564;46023;-52
2021/08/21 12:21:37;;;;;;;6.75;4.40;;;;;;;;;;143745;573;46010;-53
2021/08/21 12:24:10;;;;;;;8.75;4.65;;;;;;;;;;143747;661;46022;-52
2021/08/21 12:26:44;;;;;;;13.82;5.28;;;;;;;;;;143743;569;46021;-53
2021/08/21 12:29:29;;;;;;;7.78;4.80;;;;;;;;;;143744;643;46022;-53
2021/08/21 12:31:57;;;;;;;9.52;4.80;;;;;;;;;;143742;589;46010;-53
2021/08/21 12:34:25;;;;;;;8.48;4.60;;;;;;;;;;143747;574;46023;-53
2021/08/21 12:36:53;;;;;;;8.23;4.82;;;;;;;;;;143744;613;47018;-53
2021/08/21 12:39:25;;;;;;;8.30;4.62;;;;;;;;;;143743;678;46022;-53
2021/08/21 12:42:05;;;;;;;6.32;4.40;;;;;;;;;;143745;630;46010;-53
2021/08/21 12:44:41;;;;;;;6.28;4.57;;;;;;;;;;143747;566;45022;-52
2021/08/21 12:47:16;;;;;;;8.60;4.85;;;;;;;;;;143745;602;46020;-53
2021/08/21 12:49:45;;;;;;;10.98;4.75;;;;;;;;;;143743;582;46022;-52
2021/08/21 12:52:18;;;;;;;11.98;5.22;;;;;;;;;;143742;576;46010;-53
2021/08/21 12:54:45;;;;;;;7.37;4.67;;;;;;;;;;143748;670;45022;-53
2021/08/21 12:57:19;;;;;;;8.23;4.70;;;;;;;;;;143744;615;46019;-53
2021/08/21 13:00:01;;;;;;;7.15;4.65;;;;;;;;;;143742;595;46022;-53
2021/08/21 13:02:38;;;;;;;6.05;4.30;;;;;;;;;;143742;564;46010;-53
2021/08/21 13:05:06;;;;;;;7.53;4.45;;;;;;;;;;143747;631;46023;-53
2021/08/21 13:07:52;;;;;;;10.90;4.68;;;;;;;;;;143743;640;46020;-52
2021/08/21 13:10:24;;;;;;;8.85;4.35;;;;;;;;;;143741;586;46023;-52
2021/08/21 13:12:53;;;;;;;6.78;4.68;;;;;;;;;;143742;643;46010;-52
2021/08/21 13:15:21;;;;;;;6.62;4.70;;;;;;;;;;143747;649;45022;-53
2021/08/21 13:17:48;;;;;;;6.30;4.37;;;;;;;;;;143744;573;46020;-52
2021/08/21 13:20:17;;;;;;;7.45;4.87;;;;;;;;;;143741;585;46023;-53
2021/08/21 13:22:50;;;;;;;5.82;4.60;;;;;;;;;;143744;602;46010;-53
2021/08/21 13:25:18;;;;;;;10.75;4.70;;;;;;;;;;143747;634;45023;-52
2021/08/21 13:27:45;;;;;;;5.87;4.30;;;;;;;;;;143743;587;46020;-52
2021/08/21 13:30:13;;;;;;;6.30;4.60;;;;;;;;;;143743;577;46022;-52
2021/08/21 13:32:41;;;;;;;10.07;4.60;;;;;;;;;;143743;663;46011;-53
2021/08/21 13:35:08;;;;;;;6.72;4.47;;;;;;;;;;143747;625;46023;-53
2021/08/21 13:37:39;;;;;;;7.45;4.25;;;;;;;;;;143745;593;46018;-53
2021/08/21 13:40:07;;;;;;;8.68;4.45;;;;;;;;;;143741;603;46023;-53
2021/08/21 13:42:34;;;;;;;7.10;4.60;;;;;;;;;;143744;680;46010;-54
2021/08/21 13:45:01;;;;;;;9.63;5.00;;;;;;;;;;143748;657;46022;-53
2021/08/21 13:47:28;;;;;;;9.25;4.62;;;;;;;;;;143744;688;46020;-53
2021/08/21 13:49:55;;;;;;;8.50;4.62;;;;;;;;;;143743;646;46022;-53
2021/08/21 13:52:23;;;;;;;7.97;4.25;;;;;;;;;;143743;597;46010;-53
2021/08/21 13:54:50;;;;;;;11.38;5.10;;;;;;;;;;143746;589;45023;-53
2021/08/21 13:57:17;;;;;;;8.10;4.80;;;;;;;;;;143743;625;46018;-52
2021/08/21 13:59:46;;;;;;;7.32;4.97;;;;;;;;;;143741;579;46022;-54
2021/08/21 14:02:13;;;;;;;7.65;4.72;;;;;;;;;;143745;590;46010;-53
2021/08/21 14:04:40;;;;;;;10.60;4.45;;;;;;;;;;143746;628;46023;-53
2021/08/21 14:07:07;;;;;;;6.47;4.35;;;;;;;;;;143741;632;46020;-53
2021/08/21 14:09:34;;;;;;;9.60;5.10;;;;;;;;;;143743;601;46022;-53
2021/08/21 14:12:02;;;;;;;10.25;5.07;;;;;;;;;;143744;566;46010;-54
2021/08/21 14:14:29;;;;;;;8.18;4.60;;;;;;;;;;143746;569;45022;-53
2021/08/21 14:16:56;;;;;;;6.22;4.65;;;;;;;;;;143745;612;46019;-53
2021/08/21 14:19:23;;;;;;;9.15;4.18;;;;;;;;;;143741;581;46023;-53
2021/08/21 14:21:50;;;;;;;7.15;4.75;;;;;;;;;;143744;597;46010;-54
2021/08/21 14:24:17;;;;;;;6.93;4.85;;;;;;;;;;143749;601;45023;-54
2021/08/21 14:26:44;;;;;;;9.05;5.15;;;;;;;;;;143743;581;46018;-54
2021/08/21 14:29:11;;;;;;;6.28;4.75;;;;;;;;;;143743;596;46022;-53
2021/08/21 14:31:38;;;;;;;14.18;5.07;;;;;;;;;;143743;629;46011;-53
2021/08/21 14:34:07;;;;;;;6.28;5.00;;;;;;;;;;143747;582;45023;-53
2021/08/21 14:36:34;;;;;;;6.45;4.85;;;;;;;;;;143743;602;46020;-53
2021/08/21 14:39:01;;;;;;;9.80;4.32;;;;;;;;;;143743;589;46022;-53
2021/08/21 14:41:28;;;;;;;7.90;4.75;;;;;;;;;;143745;618;46010;-53
2021/08/21 14:43:55;;;;;;;7.93;4.53;;;;;;;;;;143746;595;46020;-53
2021/08/21 14:46:22;;;;;;;5.43;4.35;;;;;;;;;;143743;569;46020;-54
2021/08/21 14:48:49;;;;;;;7.20;4.68;;;;;;;;;;143742;592;46023;-53
2021/08/21 14:51:17;;;;;;;6.30;4.90;;;;;;;;;;143744;570;46010;-54
2021/08/21 14:53:44;;;;;;;6.10;4.70;;;;;;;;;;143747;588;45022;-53
2021/08/21 14:56:11;;;;;;;8.35;4.78;;;;;;;;;;143744;649;46019;-54